sensor_id;sensor_type;location;lat;lon;timestamp;P1;durP1;ratioP1;P2;durP2;ratioP2
66761;SDS011;53672;48.176;16.338;2022-07-09T00:03:46;5.50;;;2.92;;
66761;SDS011;53672;48.176;16.338;2022-07-09T00:08:46;8.17;;;3.13;;
66761;SDS011;53672;48.176;16.338;2022-07-09T00:13:48;5.77;;;2.97;;
66761;SDS011;53672;48.176;16.338;2022-07-09T00:18:49;5.85;;;2.78;;
66761;SDS011;53672;48.176;16.338;2022-07-09T00:23:49;5.33;;;2.83;;
66761;SDS011;53672;48.176;16.338;2022-07-09T00:28:51;7.20;;;3.10;;
66761;SDS011;53672;48.176;16.338;2022-07-09T00:33:52;5.50;;;3.00;;
66761;SDS011;53672;48.176;16.338;2022-07-09T00:38:53;6.17;;;3.00;;
66761;SDS011;53672;48.176;16.338;2022-07-09T00:43:55;8.03;;;2.87;;
66761;SDS011;53672;48.176;16.338;2022-07-09T00:48:56;5.90;;;2.67;;
66761;SDS011;53672;48.176;16.338;2022-07-09T00:53:56;6.07;;;2.80;;
66761;SDS011;53672;48.176;16.338;2022-07-09T00:58:59;7.90;;;3.05;;
66761;SDS011;53672;48.176;16.338;2022-07-09T01:04:00;6.23;;;2.70;;
66761;SDS011;53672;48.176;16.338;2022-07-09T01:09:01;6.43;;;2.85;;
66761;SDS011;53672;48.176;16.338;2022-07-09T01:14:02;7.97;;;2.97;;
66761;SDS011;53672;48.176;16.338;2022-07-09T01:19:03;6.78;;;2.60;;
66761;SDS011;53672;48.176;16.338;2022-07-09T01:24:07;7.43;;;2.70;;
66761;SDS011;53672;48.176;16.338;2022-07-09T01:29:08;5.95;;;2.67;;
66761;SDS011;53672;48.176;16.338;2022-07-09T01:34:08;6.17;;;2.67;;
66761;SDS011;53672;48.176;16.338;2022-07-09T01:39:10;6.83;;;2.90;;
66761;SDS011;53672;48.176;16.338;2022-07-09T01:44:11;6.87;;;3.10;;
66761;SDS011;53672;48.176;16.338;2022-07-09T01:49:11;6.87;;;2.80;;
66761;SDS011;53672;48.176;16.338;2022-07-09T01:54:13;6.15;;;2.47;;
66761;SDS011;53672;48.176;16.338;2022-07-09T01:59:13;5.10;;;2.47;;
66761;SDS011;53672;48.176;16.338;2022-07-09T02:04:14;6.63;;;2.70;;
66761;SDS011;53672;48.176;16.338;2022-07-09T02:09:16;7.03;;;2.90;;
66761;SDS011;53672;48.176;16.338;2022-07-09T02:14:16;6.43;;;2.45;;
66761;SDS011;53672;48.176;16.338;2022-07-09T02:19:17;5.07;;;2.40;;
66761;SDS011;53672;48.176;16.338;2022-07-09T02:24:18;6.57;;;2.73;;
66761;SDS011;53672;48.176;16.338;2022-07-09T02:29:19;6.60;;;2.42;;
66761;SDS011;53672;48.176;16.338;2022-07-09T02:34:19;5.57;;;2.57;;
66761;SDS011;53672;48.176;16.338;2022-07-09T02:39:21;7.23;;;2.40;;
66761;SDS011;53672;48.176;16.338;2022-07-09T02:44:21;5.45;;;2.53;;
66761;SDS011;53672;48.176;16.338;2022-07-09T02:49:22;7.55;;;2.63;;
66761;SDS011;53672;48.176;16.338;2022-07-09T02:54:24;8.53;;;2.57;;
66761;SDS011;53672;48.176;16.338;2022-07-09T02:59:24;6.90;;;2.13;;
66761;SDS011;53672;48.176;16.338;2022-07-09T03:04:25;5.82;;;2.40;;
66761;SDS011;53672;48.176;16.338;2022-07-09T03:09:27;5.80;;;2.38;;
66761;SDS011;53672;48.176;16.338;2022-07-09T03:14:27;5.87;;;2.33;;
66761;SDS011;53672;48.176;16.338;2022-07-09T03:19:28;6.83;;;2.30;;
66761;SDS011;53672;48.176;16.338;2022-07-09T03:24:31;6.00;;;2.40;;
66761;SDS011;53672;48.176;16.338;2022-07-09T03:29:31;4.78;;;2.30;;
66761;SDS011;53672;48.176;16.338;2022-07-09T03:34:32;6.80;;;2.20;;
66761;SDS011;53672;48.176;16.338;2022-07-09T03:39:34;6.83;;;2.23;;
66761;SDS011;53672;48.176;16.338;2022-07-09T03:44:34;6.03;;;2.23;;
66761;SDS011;53672;48.176;16.338;2022-07-09T03:49:35;7.40;;;2.50;;
66761;SDS011;53672;48.176;16.338;2022-07-09T03:54:37;6.85;;;2.53;;
66761;SDS011;53672;48.176;16.338;2022-07-09T03:59:37;6.50;;;2.20;;
66761;SDS011;53672;48.176;16.338;2022-07-09T04:04:37;5.37;;;2.37;;
66761;SDS011;53672;48.176;16.338;2022-07-09T04:09:39;6.03;;;2.30;;
66761;SDS011;53672;48.176;16.338;2022-07-09T04:14:40;5.90;;;2.35;;
66761;SDS011;53672;48.176;16.338;2022-07-09T04:19:40;5.33;;;2.33;;
66761;SDS011;53672;48.176;16.338;2022-07-09T04:24:42;5.70;;;2.20;;
66761;SDS011;53672;48.176;16.338;2022-07-09T04:29:43;6.50;;;2.25;;
66761;SDS011;53672;48.176;16.338;2022-07-09T04:34:43;7.57;;;2.60;;
66761;SDS011;53672;48.176;16.338;2022-07-09T04:39:45;7.20;;;2.10;;
66761;SDS011;53672;48.176;16.338;2022-07-09T04:44:45;5.72;;;2.47;;
66761;SDS011;53672;48.176;16.338;2022-07-09T04:49:46;5.03;;;2.20;;
66761;SDS011;53672;48.176;16.338;2022-07-09T04:54:48;5.40;;;2.50;;
66761;SDS011;53672;48.176;16.338;2022-07-09T04:59:48;6.78;;;2.55;;
66761;SDS011;53672;48.176;16.338;2022-07-09T05:04:49;7.25;;;2.65;;
66761;SDS011;53672;48.176;16.338;2022-07-09T05:09:50;4.23;;;2.20;;
66761;SDS011;53672;48.176;16.338;2022-07-09T05:14:51;6.57;;;2.37;;
66761;SDS011;53672;48.176;16.338;2022-07-09T05:19:51;5.67;;;2.60;;
66761;SDS011;53672;48.176;16.338;2022-07-09T05:24:53;6.93;;;2.80;;
66761;SDS011;53672;48.176;16.338;2022-07-09T05:29:54;5.28;;;2.42;;
66761;SDS011;53672;48.176;16.338;2022-07-09T05:34:54;8.33;;;3.07;;
66761;SDS011;53672;48.176;16.338;2022-07-09T05:39:57;5.70;;;2.30;;
66761;SDS011;53672;48.176;16.338;2022-07-09T05:44:58;5.68;;;2.50;;
66761;SDS011;53672;48.176;16.338;2022-07-09T05:49:58;5.87;;;2.33;;
66761;SDS011;53672;48.176;16.338;2022-07-09T05:55:00;5.17;;;2.30;;
66761;SDS011;53672;48.176;16.338;2022-07-09T06:00:01;5.60;;;2.35;;
66761;SDS011;53672;48.176;16.338;2022-07-09T06:05:01;6.33;;;2.40;;
66761;SDS011;53672;48.176;16.338;2022-07-09T06:10:03;5.97;;;2.07;;
66761;SDS011;53672;48.176;16.338;2022-07-09T06:15:05;5.55;;;2.30;;
66761;SDS011;53672;48.176;16.338;2022-07-09T06:20:06;6.10;;;2.33;;
66761;SDS011;53672;48.176;16.338;2022-07-09T06:25:09;6.50;;;2.40;;
66761;SDS011;53672;48.176;16.338;2022-07-09T06:30:10;6.32;;;2.20;;
66761;SDS011;53672;48.176;16.338;2022-07-09T06:35:10;6.60;;;2.30;;
66761;SDS011;53672;48.176;16.338;2022-07-09T06:40:12;6.17;;;2.40;;
66761;SDS011;53672;48.176;16.338;2022-07-09T06:45:13;6.55;;;2.30;;
66761;SDS011;53672;48.176;16.338;2022-07-09T06:50:13;5.45;;;2.08;;
66761;SDS011;53672;48.176;16.338;2022-07-09T06:55:15;5.40;;;2.20;;
66761;SDS011;53672;48.176;16.338;2022-07-09T07:00:15;5.90;;;2.27;;
66761;SDS011;53672;48.176;16.338;2022-07-09T07:05:16;5.80;;;1.80;;
66761;SDS011;53672;48.176;16.338;2022-07-09T07:10:18;6.60;;;2.20;;
66761;SDS011;53672;48.176;16.338;2022-07-09T07:15:18;4.47;;;2.00;;
66761;SDS011;53672;48.176;16.338;2022-07-09T07:20:19;5.17;;;2.20;;
66761;SDS011;53672;48.176;16.338;2022-07-09T07:25:21;4.27;;;2.10;;
66761;SDS011;53672;48.176;16.338;2022-07-09T07:30:21;5.43;;;2.40;;
66761;SDS011;53672;48.176;16.338;2022-07-09T07:35:22;6.63;;;2.60;;
66761;SDS011;53672;48.176;16.338;2022-07-09T07:40:24;7.27;;;2.23;;
66761;SDS011;53672;48.176;16.338;2022-07-09T07:45:24;6.60;;;2.20;;
66761;SDS011;53672;48.176;16.338;2022-07-09T07:50:25;4.50;;;1.80;;
66761;SDS011;53672;48.176;16.338;2022-07-09T07:55:27;4.33;;;1.77;;
66761;SDS011;53672;48.176;16.338;2022-07-09T08:00:27;5.00;;;2.20;;
66761;SDS011;53672;48.176;16.338;2022-07-09T08:05:27;6.00;;;2.45;;
66761;SDS011;53672;48.176;16.338;2022-07-09T08:10:29;5.43;;;2.17;;
66761;SDS011;53672;48.176;16.338;2022-07-09T08:15:30;4.10;;;2.17;;
66761;SDS011;53672;48.176;16.338;2022-07-09T08:20:30;6.15;;;2.40;;
66761;SDS011;53672;48.176;16.338;2022-07-09T08:25:32;6.10;;;2.47;;
66761;SDS011;53672;48.176;16.338;2022-07-09T08:30:33;5.23;;;2.27;;
66761;SDS011;53672;48.176;16.338;2022-07-09T08:35:33;6.40;;;2.27;;
66761;SDS011;53672;48.176;16.338;2022-07-09T08:40:35;6.45;;;2.50;;
66761;SDS011;53672;48.176;16.338;2022-07-09T08:45:36;4.13;;;2.10;;
66761;SDS011;53672;48.176;16.338;2022-07-09T08:50:36;5.43;;;2.27;;
66761;SDS011;53672;48.176;16.338;2022-07-09T08:55:41;5.38;;;2.58;;
66761;SDS011;53672;48.176;16.338;2022-07-09T09:00:41;4.90;;;2.10;;
66761;SDS011;53672;48.176;16.338;2022-07-09T09:05:42;5.20;;;2.33;;
66761;SDS011;53672;48.176;16.338;2022-07-09T09:10:44;4.63;;;2.40;;
66761;SDS011;53672;48.176;16.338;2022-07-09T09:15:45;4.93;;;2.10;;
66761;SDS011;53672;48.176;16.338;2022-07-09T09:20:46;5.27;;;2.57;;
66761;SDS011;53672;48.176;16.338;2022-07-09T09:25:48;4.60;;;2.50;;
66761;SDS011;53672;48.176;16.338;2022-07-09T09:30:48;5.43;;;2.75;;
66761;SDS011;53672;48.176;16.338;2022-07-09T09:35:48;5.27;;;2.97;;
66761;SDS011;53672;48.176;16.338;2022-07-09T09:40:50;5.80;;;2.97;;
66761;SDS011;53672;48.176;16.338;2022-07-09T09:45:51;5.75;;;3.40;;
66761;SDS011;53672;48.176;16.338;2022-07-09T09:50:55;4.87;;;2.73;;
66761;SDS011;53672;48.176;16.338;2022-07-09T09:55:59;5.63;;;2.72;;
66761;SDS011;53672;48.176;16.338;2022-07-09T10:01:00;4.20;;;2.40;;
66761;SDS011;53672;48.176;16.338;2022-07-09T10:06:01;6.25;;;2.22;;
66761;SDS011;53672;48.176;16.338;2022-07-09T10:11:03;5.77;;;2.30;;
66761;SDS011;53672;48.176;16.338;2022-07-09T10:16:04;5.78;;;2.58;;
66761;SDS011;53672;48.176;16.338;2022-07-09T10:21:05;4.80;;;2.37;;
66761;SDS011;53672;48.176;16.338;2022-07-09T10:26:07;7.97;;;2.80;;
66761;SDS011;53672;48.176;16.338;2022-07-09T10:31:08;5.10;;;1.73;;
66761;SDS011;53672;48.176;16.338;2022-07-09T10:36:09;3.92;;;1.90;;
66761;SDS011;53672;48.176;16.338;2022-07-09T10:41:20;4.10;;;1.95;;
66761;SDS011;53672;48.176;16.338;2022-07-09T10:46:21;4.75;;;1.80;;
66761;SDS011;53672;48.176;16.338;2022-07-09T10:51:22;3.70;;;1.63;;
66761;SDS011;53672;48.176;16.338;2022-07-09T10:56:24;4.03;;;1.97;;
66761;SDS011;53672;48.176;16.338;2022-07-09T11:01:24;3.67;;;1.60;;
66761;SDS011;53672;48.176;16.338;2022-07-09T11:06:26;4.32;;;1.88;;
66761;SDS011;53672;48.176;16.338;2022-07-09T11:11:27;4.57;;;2.10;;
66761;SDS011;53672;48.176;16.338;2022-07-09T11:16:28;4.43;;;2.40;;
66761;SDS011;53672;48.176;16.338;2022-07-09T11:21:28;5.70;;;2.37;;
66761;SDS011;53672;48.176;16.338;2022-07-09T11:26:30;3.67;;;1.87;;
66761;SDS011;53672;48.176;16.338;2022-07-09T11:31:31;5.32;;;2.20;;
66761;SDS011;53672;48.176;16.338;2022-07-09T11:36:35;4.43;;;2.33;;
66761;SDS011;53672;48.176;16.338;2022-07-09T11:41:44;4.60;;;2.00;;
66761;SDS011;53672;48.176;16.338;2022-07-09T11:46:45;4.47;;;1.90;;
66761;SDS011;53672;48.176;16.338;2022-07-09T11:51:45;4.25;;;2.20;;
66761;SDS011;53672;48.176;16.338;2022-07-09T11:56:47;5.55;;;2.63;;
66761;SDS011;53672;48.176;16.338;2022-07-09T12:01:47;5.67;;;2.63;;
66761;SDS011;53672;48.176;16.338;2022-07-09T12:06:48;4.50;;;2.23;;
66761;SDS011;53672;48.176;16.338;2022-07-09T12:11:50;4.20;;;2.00;;
66761;SDS011;53672;48.176;16.338;2022-07-09T12:16:50;6.67;;;2.27;;
66761;SDS011;53672;48.176;16.338;2022-07-09T12:21:51;4.63;;;2.10;;
66761;SDS011;53672;48.176;16.338;2022-07-09T12:26:53;4.47;;;2.40;;
66761;SDS011;53672;48.176;16.338;2022-07-09T12:31:53;4.83;;;2.23;;
66761;SDS011;53672;48.176;16.338;2022-07-09T12:36:54;3.60;;;2.10;;
66761;SDS011;53672;48.176;16.338;2022-07-09T12:41:56;6.53;;;2.37;;
66761;SDS011;53672;48.176;16.338;2022-07-09T12:46:56;5.28;;;2.60;;
66761;SDS011;53672;48.176;16.338;2022-07-09T12:51:57;4.00;;;2.27;;
66761;SDS011;53672;48.176;16.338;2022-07-09T12:56:58;4.60;;;2.10;;
66761;SDS011;53672;48.176;16.338;2022-07-09T13:01:59;3.70;;;2.10;;
66761;SDS011;53672;48.176;16.338;2022-07-09T13:07:00;4.37;;;2.07;;
66761;SDS011;53672;48.176;16.338;2022-07-09T13:12:03;4.47;;;2.13;;
66761;SDS011;53672;48.176;16.338;2022-07-09T13:17:04;4.77;;;2.13;;
66761;SDS011;53672;48.176;16.338;2022-07-09T13:22:04;3.80;;;2.27;;
66761;SDS011;53672;48.176;16.338;2022-07-09T13:27:06;4.87;;;2.00;;
66761;SDS011;53672;48.176;16.338;2022-07-09T13:32:06;4.40;;;2.13;;
66761;SDS011;53672;48.176;16.338;2022-07-09T13:37:07;3.53;;;2.03;;
66761;SDS011;53672;48.176;16.338;2022-07-09T13:42:09;3.88;;;1.90;;
66761;SDS011;53672;48.176;16.338;2022-07-09T13:47:09;3.53;;;2.20;;
66761;SDS011;53672;48.176;16.338;2022-07-09T13:52:10;4.87;;;2.10;;
66761;SDS011;53672;48.176;16.338;2022-07-09T13:57:12;4.60;;;2.50;;
66761;SDS011;53672;48.176;16.338;2022-07-09T14:02:12;5.85;;;2.40;;
66761;SDS011;53672;48.176;16.338;2022-07-09T14:07:13;4.90;;;2.30;;
66761;SDS011;53672;48.176;16.338;2022-07-09T14:12:15;3.40;;;1.80;;
66761;SDS011;53672;48.176;16.338;2022-07-09T14:17:15;4.35;;;2.08;;
66761;SDS011;53672;48.176;16.338;2022-07-09T14:22:16;3.53;;;1.90;;
66761;SDS011;53672;48.176;16.338;2022-07-09T14:27:18;4.20;;;1.80;;
66761;SDS011;53672;48.176;16.338;2022-07-09T14:32:18;6.47;;;1.88;;
66761;SDS011;53672;48.176;16.338;2022-07-09T14:37:18;3.83;;;1.77;;
66761;SDS011;53672;48.176;16.338;2022-07-09T14:42:20;4.60;;;2.00;;
66761;SDS011;53672;48.176;16.338;2022-07-09T14:47:21;3.87;;;1.80;;
66761;SDS011;53672;48.176;16.338;2022-07-09T14:52:21;5.93;;;1.92;;
66761;SDS011;53672;48.176;16.338;2022-07-09T14:57:23;3.80;;;1.70;;
66761;SDS011;53672;48.176;16.338;2022-07-09T15:02:23;4.18;;;1.73;;
66761;SDS011;53672;48.176;16.338;2022-07-09T15:07:24;3.70;;;1.90;;
66761;SDS011;53672;48.176;16.338;2022-07-09T15:12:26;4.10;;;1.63;;
66761;SDS011;53672;48.176;16.338;2022-07-09T15:17:26;4.43;;;1.80;;
66761;SDS011;53672;48.176;16.338;2022-07-09T15:22:27;4.57;;;1.90;;
66761;SDS011;53672;48.176;16.338;2022-07-09T15:27:29;4.57;;;1.67;;
66761;SDS011;53672;48.176;16.338;2022-07-09T15:32:29;4.63;;;1.80;;
66761;SDS011;53672;48.176;16.338;2022-07-09T15:37:30;4.97;;;1.87;;
66761;SDS011;53672;48.176;16.338;2022-07-09T15:42:32;4.90;;;1.60;;
66761;SDS011;53672;48.176;16.338;2022-07-09T15:47:32;5.40;;;2.17;;
66761;SDS011;53672;48.176;16.338;2022-07-09T15:52:32;4.07;;;2.00;;
66761;SDS011;53672;48.176;16.338;2022-07-09T15:57:34;3.90;;;1.70;;
66761;SDS011;53672;48.176;16.338;2022-07-09T16:02:35;4.88;;;1.77;;
66761;SDS011;53672;48.176;16.338;2022-07-09T16:07:36;3.58;;;1.73;;
66761;SDS011;53672;48.176;16.338;2022-07-09T16:12:37;3.97;;;1.67;;
66761;SDS011;53672;48.176;16.338;2022-07-09T16:17:38;6.20;;;2.00;;
66761;SDS011;53672;48.176;16.338;2022-07-09T16:22:38;5.73;;;1.80;;
66761;SDS011;53672;48.176;16.338;2022-07-09T16:27:41;8.98;;;2.88;;
66761;SDS011;53672;48.176;16.338;2022-07-09T16:32:42;7.50;;;2.63;;
66761;SDS011;53672;48.176;16.338;2022-07-09T16:37:42;7.13;;;2.70;;
66761;SDS011;53672;48.176;16.338;2022-07-09T16:42:44;5.43;;;2.50;;
66761;SDS011;53672;48.176;16.338;2022-07-09T16:47:45;4.85;;;2.83;;
66761;SDS011;53672;48.176;16.338;2022-07-09T16:52:45;4.22;;;2.40;;
66761;SDS011;53672;48.176;16.338;2022-07-09T16:57:47;6.10;;;2.80;;
66761;SDS011;53672;48.176;16.338;2022-07-09T17:02:47;7.30;;;3.60;;
66761;SDS011;53672;48.176;16.338;2022-07-09T17:07:48;7.60;;;4.70;;
66761;SDS011;53672;48.176;16.338;2022-07-09T17:12:49;4.93;;;3.10;;
66761;SDS011;53672;48.176;16.338;2022-07-09T17:17:50;6.18;;;3.30;;
66761;SDS011;53672;48.176;16.338;2022-07-09T17:22:51;6.10;;;3.37;;
66761;SDS011;53672;48.176;16.338;2022-07-09T17:27:52;6.00;;;3.00;;
66761;SDS011;53672;48.176;16.338;2022-07-09T17:32:53;14.18;;;3.42;;
66761;SDS011;53672;48.176;16.338;2022-07-09T17:37:55;8.60;;;3.53;;
66761;SDS011;53672;48.176;16.338;2022-07-09T17:42:57;6.22;;;2.97;;
66761;SDS011;53672;48.176;16.338;2022-07-09T17:47:58;5.90;;;2.83;;
66761;SDS011;53672;48.176;16.338;2022-07-09T17:52:58;7.03;;;3.60;;
66761;SDS011;53672;48.176;16.338;2022-07-09T17:58:01;3.77;;;1.80;;
66761;SDS011;53672;48.176;16.338;2022-07-09T18:03:02;3.63;;;1.40;;
66761;SDS011;53672;48.176;16.338;2022-07-09T18:08:03;3.13;;;1.20;;
66761;SDS011;53672;48.176;16.338;2022-07-09T18:13:05;2.80;;;1.00;;
66761;SDS011;53672;48.176;16.338;2022-07-09T18:18:06;3.10;;;1.20;;
66761;SDS011;53672;48.176;16.338;2022-07-09T18:23:06;3.03;;;1.30;;
66761;SDS011;53672;48.176;16.338;2022-07-09T18:28:08;3.20;;;1.20;;
66761;SDS011;53672;48.176;16.338;2022-07-09T18:33:09;3.50;;;1.20;;
66761;SDS011;53672;48.176;16.338;2022-07-09T18:38:09;4.23;;;1.50;;
66761;SDS011;53672;48.176;16.338;2022-07-09T18:43:11;6.27;;;2.30;;
66761;SDS011;53672;48.176;16.338;2022-07-09T18:48:11;6.30;;;2.50;;
66761;SDS011;53672;48.176;16.338;2022-07-09T18:53:12;4.53;;;1.70;;
66761;SDS011;53672;48.176;16.338;2022-07-09T18:58:14;4.00;;;2.07;;
66761;SDS011;53672;48.176;16.338;2022-07-09T19:03:14;3.70;;;1.60;;
66761;SDS011;53672;48.176;16.338;2022-07-09T19:08:15;4.27;;;1.70;;
66761;SDS011;53672;48.176;16.338;2022-07-09T19:13:16;5.57;;;2.00;;
66761;SDS011;53672;48.176;16.338;2022-07-09T19:18:17;4.53;;;2.00;;
66761;SDS011;53672;48.176;16.338;2022-07-09T19:23:17;3.97;;;2.10;;
66761;SDS011;53672;48.176;16.338;2022-07-09T19:28:19;5.25;;;2.08;;
66761;SDS011;53672;48.176;16.338;2022-07-09T19:33:20;6.43;;;2.33;;
66761;SDS011;53672;48.176;16.338;2022-07-09T19:38:20;5.23;;;2.47;;
66761;SDS011;53672;48.176;16.338;2022-07-09T19:43:22;5.73;;;2.10;;
66761;SDS011;53672;48.176;16.338;2022-07-09T19:48:22;6.72;;;2.67;;
66761;SDS011;53672;48.176;16.338;2022-07-09T19:53:23;5.30;;;2.53;;
66761;SDS011;53672;48.176;16.338;2022-07-09T19:58:25;5.77;;;2.83;;
66761;SDS011;53672;48.176;16.338;2022-07-09T20:03:26;6.97;;;2.85;;
66761;SDS011;53672;48.176;16.338;2022-07-09T20:08:26;6.00;;;2.53;;
66761;SDS011;53672;48.176;16.338;2022-07-09T20:13:28;4.53;;;2.40;;
66761;SDS011;53672;48.176;16.338;2022-07-09T20:18:29;4.53;;;2.60;;
66761;SDS011;53672;48.176;16.338;2022-07-09T20:23:29;5.63;;;3.10;;
66761;SDS011;53672;48.176;16.338;2022-07-09T20:28:31;5.57;;;2.83;;
66761;SDS011;53672;48.176;16.338;2022-07-09T20:33:32;5.20;;;2.72;;
66761;SDS011;53672;48.176;16.338;2022-07-09T20:38:32;5.40;;;2.83;;
66761;SDS011;53672;48.176;16.338;2022-07-09T20:43:34;4.87;;;2.70;;
66761;SDS011;53672;48.176;16.338;2022-07-09T20:48:34;4.78;;;2.60;;
66761;SDS011;53672;48.176;16.338;2022-07-09T20:53:35;6.18;;;2.80;;
66761;SDS011;53672;48.176;16.338;2022-07-09T20:58:37;6.40;;;2.60;;
66761;SDS011;53672;48.176;16.338;2022-07-09T21:03:37;4.37;;;2.47;;
66761;SDS011;53672;48.176;16.338;2022-07-09T21:08:38;6.50;;;2.70;;
66761;SDS011;53672;48.176;16.338;2022-07-09T21:13:40;4.75;;;2.50;;
66761;SDS011;53672;48.176;16.338;2022-07-09T21:18:40;5.00;;;2.60;;
66761;SDS011;53672;48.176;16.338;2022-07-09T21:23:41;4.87;;;2.60;;
66761;SDS011;53672;48.176;16.338;2022-07-09T21:28:43;4.10;;;2.25;;
66761;SDS011;53672;48.176;16.338;2022-07-09T21:33:43;5.20;;;2.90;;
66761;SDS011;53672;48.176;16.338;2022-07-09T21:38:44;4.50;;;2.27;;
66761;SDS011;53672;48.176;16.338;2022-07-09T21:43:45;4.23;;;2.00;;
66761;SDS011;53672;48.176;16.338;2022-07-09T21:48:46;4.38;;;2.22;;
66761;SDS011;53672;48.176;16.338;2022-07-09T21:53:46;5.13;;;2.10;;
66761;SDS011;53672;48.176;16.338;2022-07-09T21:58:48;4.20;;;2.17;;
66761;SDS011;53672;48.176;16.338;2022-07-09T22:03:48;4.57;;;2.10;;
66761;SDS011;53672;48.176;16.338;2022-07-09T22:08:49;4.47;;;2.13;;
66761;SDS011;53672;48.176;16.338;2022-07-09T22:13:51;4.90;;;1.80;;
66761;SDS011;53672;48.176;16.338;2022-07-09T22:18:51;4.17;;;2.00;;
66761;SDS011;53672;48.176;16.338;2022-07-09T22:23:52;3.80;;;1.97;;
66761;SDS011;53672;48.176;16.338;2022-07-09T22:28:53;3.85;;;1.80;;
66761;SDS011;53672;48.176;16.338;2022-07-09T22:33:54;3.83;;;2.00;;
66761;SDS011;53672;48.176;16.338;2022-07-09T22:38:54;3.87;;;1.77;;
66761;SDS011;53672;48.176;16.338;2022-07-09T22:43:56;4.00;;;1.90;;
66761;SDS011;53672;48.176;16.338;2022-07-09T22:48:56;3.70;;;1.80;;
66761;SDS011;53672;48.176;16.338;2022-07-09T22:53:57;5.37;;;1.90;;
66761;SDS011;53672;48.176;16.338;2022-07-09T22:58:59;4.73;;;2.00;;
66761;SDS011;53672;48.176;16.338;2022-07-09T23:03:59;5.35;;;2.30;;
66761;SDS011;53672;48.176;16.338;2022-07-09T23:08:59;5.47;;;2.30;;
66761;SDS011;53672;48.176;16.338;2022-07-09T23:14:02;4.70;;;2.37;;
66761;SDS011;53672;48.176;16.338;2022-07-09T23:19:04;6.55;;;2.58;;
66761;SDS011;53672;48.176;16.338;2022-07-09T23:24:06;4.70;;;2.20;;
66761;SDS011;53672;48.176;16.338;2022-07-09T23:29:08;5.30;;;2.30;;
66761;SDS011;53672;48.176;16.338;2022-07-09T23:34:08;4.07;;;2.40;;
66761;SDS011;53672;48.176;16.338;2022-07-09T23:39:08;5.00;;;2.47;;
66761;SDS011;53672;48.176;16.338;2022-07-09T23:44:10;4.33;;;2.20;;
66761;SDS011;53672;48.176;16.338;2022-07-09T23:49:11;5.22;;;2.80;;
66761;SDS011;53672;48.176;16.338;2022-07-09T23:54:11;5.23;;;2.80;;
66761;SDS011;53672;48.176;16.338;2022-07-09T23:59:13;5.43;;;2.83;;
